Home > Products > Valid Products > TAF

000
FTUS45 KBYZ 251720
TAFMLS
TAF
KMLS 251720Z 2518/2618 14007KT P6SM FEW100=



000
FTUS45 KBYZ 251720
TAFLVM
TAF
KLVM 251720Z 2518/2618 VRB05KT P6SM FEW100
     FM251900 21014G21KT P6SM FEW100
     FM252200 22020G30KT P6SM FEW100=



000
FTUS45 KBYZ 251720
TAFBIL
TAF
KBIL 251720Z 2518/2618 21007KT P6SM FEW100
     FM260700 25009KT P6SM FEW100=



000
FTUS45 KBYZ 251720
TAFSHR
TAF
KSHR 251720Z 2518/2618 VRB04KT P6SM FEW100=



000
FTUS45 KBYZ 251720
TAFBIL
TAF
KBIL 251720Z 2518/2618 21007KT P6SM FEW100
     FM260700 25009KT P6SM FEW100=



000
FTUS45 KBYZ 251720
TAFSHR
TAF
KSHR 251720Z 2518/2618 VRB04KT P6SM FEW100=



000
FTUS45 KBYZ 251720
TAFMLS
TAF
KMLS 251720Z 2518/2618 14007KT P6SM FEW100=



000
FTUS45 KBYZ 251720
TAFLVM
TAF
KLVM 251720Z 2518/2618 VRB05KT P6SM FEW100
     FM251900 21014G21KT P6SM FEW100
     FM252200 22020G30KT P6SM FEW100=



000
FTUS45 KBYZ 251609 AAD
TAFLVM
TAF AMD
KLVM 251609Z 2516/2612 VRB05KT P6SM FEW100
      TEMPO 2516/2517 3SM BR SCT001
     FM251700 21012KT P6SM FEW001 FEW100
     FM251800 22020G30KT P6SM FEW100=



000
FTUS45 KBYZ 251507 AAC
TAFLVM
TAF AMD
KLVM 251507Z 2515/2612 VRB05KT 1/4SM FG VV001
      TEMPO 2515/2517 3SM BR SCT001
     FM251700 21012KT P6SM FEW001 FEW100
     FM251800 22020G30KT P6SM FEW100=



000
FTUS45 KBYZ 251410 AAB
TAFLVM
TAF AMD
KLVM 251410Z 2514/2612 VRB05KT 1/4SM FG VV001
      TEMPO 2514/2515 1SM BR BKN001
     FM251500 21012KT P6SM FEW001 FEW100
     FM251800 22020G30KT P6SM FEW100=



000
FTUS45 KBYZ 251326 AAA
TAFLVM
TAF AMD
KLVM 251326Z 2513/2612 VRB05KT 1SM BR VV001
      TEMPO 2513/2515 5SM BR FEW001
     FM251500 21012KT P6SM FEW100
     FM251800 22020G30KT P6SM FEW100=



000
FTUS45 KBYZ 251136
TAFBIL
TAF
KBIL 251136Z 2512/2612 18006KT P6SM FEW100
     FM260200 24008KT P6SM FEW100=



000
FTUS45 KBYZ 251136
TAFLVM
TAF
KLVM 251136Z 2512/2612 21010KT P6SM FEW100
     FM251800 22020G30KT P6SM FEW100=



000
FTUS45 KBYZ 251136
TAFSHR
TAF
KSHR 251136Z 2512/2612 VRB04KT P6SM FEW100=



000
FTUS45 KBYZ 251136
TAFMLS
TAF
KMLS 251136Z 2512/2612 14006KT P6SM FEW100=



000
FTUS45 KBYZ 251136
TAFBIL
TAF
KBIL 251136Z 2512/2612 18006KT P6SM FEW100
     FM260200 24008KT P6SM FEW100=



000
FTUS45 KBYZ 251136
TAFSHR
TAF
KSHR 251136Z 2512/2612 VRB04KT P6SM FEW100=



000
FTUS45 KBYZ 251136
TAFLVM
TAF
KLVM 251136Z 2512/2612 21010KT P6SM FEW100
     FM251800 22020G30KT P6SM FEW100=



000
FTUS45 KBYZ 251136
TAFMLS
TAF
KMLS 251136Z 2512/2612 14006KT P6SM FEW100=



000
FTUS45 KBYZ 250532
TAFBIL
TAF
KBIL 250532Z 2506/2606 03006KT P6SM SCT100
     FM251200 20008KT P6SM FEW100=



000
FTUS45 KBYZ 250532
TAFLVM
TAF
KLVM 250532Z 2506/2606 34006KT P6SM SCT100
     FM251200 21014KT P6SM FEW100
     FM251800 22020G30KT P6SM FEW100=



000
FTUS45 KBYZ 250532
TAFMLS
TAF
KMLS 250532Z 2506/2606 11006KT P6SM SCT100=



000
FTUS45 KBYZ 250532
TAFSHR
TAF
KSHR 250532Z 2506/2606 VRB04KT P6SM FEW100=



000
FTUS45 KBYZ 242329
TAFMLS
TAF
KMLS 242329Z 2500/2524 VRB06KT P6SM SCT100=



000
FTUS45 KBYZ 242329
TAFBIL
TAF
KBIL 242329Z 2500/2524 VRB06KT P6SM SCT100=



000
FTUS45 KBYZ 242329
TAFLVM
TAF
KLVM 242329Z 2500/2524 VRB06KT P6SM SCT100
     FM251200 21014KT P6SM SKC=



000
FTUS45 KBYZ 242329
TAFSHR
TAF
KSHR 242329Z 2500/2524 VRB06KT P6SM SCT100=



000
FTUS45 KBYZ 241720
TAFLVM
TAF
KLVM 241720Z 2418/2518 26012KT P6SM BKN080 OVC100
     FM242200 27012KT P6SM SCT100 OVC250
     FM250500 26014KT P6SM SCT100 BKN200=



000
FTUS45 KBYZ 241720
TAFMLS
TAF
KMLS 241720Z 2418/2518 22006KT P6SM BKN110
     FM242000 32008KT P6SM BKN100
     FM242200 VRB06KT P6SM SCT100 BKN200=



000
FTUS45 KBYZ 241720
TAFBIL
TAF
KBIL 241720Z 2418/2518 VRB06KT P6SM BKN100 BKN200
     FM242300 05007KT P6SM SCT100 BKN200
     FM250600 12008KT P6SM SCT120 BKN200=



000
FTUS45 KBYZ 241720
TAFSHR
TAF
KSHR 241720Z 2418/2518 VRB06KT P6SM SCT100 BKN200=



000
FTUS45 KBYZ 241130
TAFBIL
TAF
KBIL 241130Z 2412/2512 32010KT P6SM SCT100 BKN200
     FM241800 04008KT P6SM BKN120
     FM250600 12008KT P6SM SCT120 BKN200=



000
FTUS45 KBYZ 241130
TAFSHR
TAF
KSHR 241130Z 2412/2512 VRB04KT P6SM SCT100 BKN200
     FM241600 32006KT P6SM SCT100 BKN200
     FM242000 02006KT P6SM SCT100 BKN200
     FM250200 VRB04KT P6SM SCT100 BKN200=



000
FTUS45 KBYZ 241130
TAFLVM
TAF
KLVM 241130Z 2412/2512 24020G30KT P6SM BKN100
     FM241500 24014KT P6SM BKN100
     FM250500 26014KT P6SM SCT100 BKN200=



000
FTUS45 KBYZ 241130
TAFMLS
TAF
KMLS 241130Z 2412/2512 22006KT P6SM BKN100
     FM241600 32008KT P6SM BKN100
     FM242200 04006KT P6SM SCT100 BKN200=



000
FTUS45 KBYZ 240539
TAFLVM
TAF
KLVM 240539Z 2406/2506 23025G35KT P6SM BKN100
     FM241000 22018G28KT P6SM BKN060 OVC200=



000
FTUS45 KBYZ 240539
TAFSHR
TAF
KSHR 240539Z 2406/2506 VRB05KT P6SM SCT100 BKN250=



000
FTUS45 KBYZ 240539
TAFMLS
TAF
KMLS 240539Z 2406/2506 15004KT P6SM SCT100 BKN250
     FM241200 26008KT P6SM BKN150=



000
FTUS45 KBYZ 240539
TAFBIL
TAF
KBIL 240539Z 2406/2506 25010KT P6SM SCT100 BKN150
     FM242200 02008KT P6SM BKN100=



000
FTUS45 KBYZ 232322
TAFLVM
TAF
KLVM 232322Z 2400/2424 23025G35KT P6SM SCT100 BKN200
     FM240600 22018G28KT P6SM BKN060 OVC200=



000
FTUS45 KBYZ 232322
TAFBIL
TAF
KBIL 232322Z 2400/2424 23010KT P6SM SCT100 BKN250=



000
FTUS45 KBYZ 232322
TAFMLS
TAF
KMLS 232322Z 2400/2424 VRB06KT P6SM SCT100 BKN250=



000
FTUS45 KBYZ 232322
TAFSHR
TAF
KSHR 232322Z 2400/2424 VRB06KT P6SM SCT100 BKN250=



000
FTUS45 KBYZ 231720
TAFBIL
TAF
KBIL 231720Z 2318/2418 24015G25KT P6SM SCT080 BKN200
     FM240200 23012KT P6SM SCT080 BKN250
     FM241200 25010KT P6SM BKN080 OVC150=



000
FTUS45 KBYZ 231720
TAFMLS
TAF
KMLS 231720Z 2318/2418 24014G22KT P6SM SCT100 BKN250
     FM240200 24008KT P6SM FEW100 SCT250
     FM241600 30012KT P6SM BKN080 OVC250=



000
FTUS45 KBYZ 231720
TAFLVM
TAF
KLVM 231720Z 2318/2418 23025G35KT P6SM SCT100 BKN200
     FM240800 22018G28KT P6SM BKN060 OVC200=



000
FTUS45 KBYZ 231720
TAFSHR
TAF
KSHR 231720Z 2318/2418 30008KT P6SM FEW080 BKN250
      TEMPO 2319/2322 24012G22KT
     FM240200 24010KT P6SM FEW100 BKN250
     FM241400 VRB05KT P6SM BKN120=



000
FTUS45 KBYZ 231133
TAFLVM
TAF
KLVM 231133Z 2312/2412 23027G40KT P6SM SCT070 BKN100
     FM240000 24018G26KT P6SM BKN070=



000
FTUS45 KBYZ 231133
TAFSHR
TAF
KSHR 231133Z 2312/2412 VRB05KT P6SM BKN200
     FM231900 27010KT P6SM BKN120=



000
FTUS45 KBYZ 231133
TAFBIL
TAF
KBIL 231133Z 2312/2412 23013KT P6SM FEW120 BKN200
     FM231700 24015G22KT P6SM BKN110
     FM240100 25011KT P6SM BKN100=



000
FTUS45 KBYZ 231133
TAFMLS
TAF
KMLS 231133Z 2312/2412 16009KT P6SM SCT200
     FM231800 23011KT P6SM BKN120=



000
FTUS45 KBYZ 230530
TAFBIL
TAF
KBIL 230530Z 2306/2406 23012KT P6SM SCT250
     FM231700 24015G22KT P6SM BKN150
     FM240100 25011KT P6SM BKN150=



000
FTUS45 KBYZ 230530
TAFSHR
TAF
KSHR 230530Z 2306/2406 VRB05KT P6SM SCT200
     FM232000 26009KT P6SM BKN150=



000
FTUS45 KBYZ 230530
TAFMLS
TAF
KMLS 230530Z 2306/2406 16007KT P6SM SKC
     FM231800 23010KT P6SM BKN150=



000
FTUS45 KBYZ 230530
TAFLVM
TAF
KLVM 230530Z 2306/2406 23023G33KT P6SM FEW120 BKN200
     FM231200 23027G41KT P6SM BKN120
     FM240100 24018G26KT P6SM BKN100=



000
FTUS45 KBYZ 222323 CCA
TAFBIL
TAF COR
KBIL 222323Z 2300/2324 24012KT P6SM SCT250=



000
FTUS45 KBYZ 222320
TAFBIL
TAF
KBIL 222320Z 2300/2324 20012KT P6SM SCT250=



000
FTUS45 KBYZ 222320
TAFMLS
TAF
KMLS 222320Z 2300/2324 23008KT P6SM SKC
     FM230900 22008KT P6SM FEW250=



000
FTUS45 KBYZ 222320
TAFSHR
TAF
KSHR 222320Z 2300/2324 VRB05KT P6SM FEW250=



000
FTUS45 KBYZ 222320
TAFLVM
TAF
KLVM 222320Z 2300/2324 24018G28KT P6SM SCT200=



    US Dept of Commerce
    National Oceanic and Atmospheric Administration
    National Weather Service
    1325 East West Highway
    Silver Spring, MD 20910
    Page Author: NWS Internet Services Team
Disclaimer
Information Quality
Credits
Glossary
Privacy Policy
Freedom of Information Act (FOIA)
About Us
Career Opportunities